Terminal Aerodrome Forecast
Issued by NWS

Home | Current Version | Previous Version | Text Only | Print | Product List | Glossary On
Versions: 1 2 3 4 5 6 7 8 9 10 11 12 13
000
FTUS44 KOUN 041125
TAFCSM
TAF
KCSM 041125Z 0412/0512 34006KT P6SM BKN005
     FM041400 34007KT 3SM BR SCT007 BKN015
     FM041600 35009KT P6SM FEW250=

USA.gov is the U.S. government's official web portal to all federal, state and local government web resources and services.